Les articles d'ExpertMaritime.pro


Votre expert maritime indépendant Xavier Braive est disponible sur la zone de Meschers-sur-Gironde - Port de Meschers - 17132

(Charente-Maritime - Poitou-Charentes)


Voir plan
Situation :

Le Port de Meschers, situé sur la rive droite de la Gironde près de son embouchure, est abrité par tous temps.

Il comprend :

- Un avant-chenal de 250 m de long, large de 8 m qui fait un angle de 8° W avec le Nord vrai, creusé à la cote + 0,50 m ; le vieux havre d’échouage ou « chenal » équipé de quai, cales en 1861.

- Un bassin d’échouage créé 1985 de 121 places sur pontons flottants, creuse à la cote + 1 m.

- Un bassin à flot mis en service en 1990, de 121 places à l’origine, 116 aujourd’hui (on y a placé des bateaux plus grands que prévu), en arrière d’une porte-écluse, T.E. 2,50 m ; le seuil de l’écluse est à la cote + 2 m ; les portes ouvrent quand la mer atteint le niveau + 3,50 m, avec 1,50 m d’eau sur le seuil (les cotes se réfèrent au niveau 0 des cartes marines).
Lat. 45° 33?, 3 N – Long. 00° 56?, 6 W ; carte SHOM 7029.
Distances : LE VERDON : 3,5 M. – ROYAN : 5 M. – PAUILLAC : 23 M. – BORDEAUX : 48 M.

- Une zone de mouillage, ouverte d’Avril à Septembre, de 22 corps morts, sur les vases à l’est du chenal d’accès.

Pratique :

Ville de Meschers : Location des anneaux.
Capitainerie, Tél.: 05.46.02.56.89 – VHF canal 9 –
n° de Fax 05 46 02 34 77 - GSM 06 15 11 23 10
Monsieur KERDUDOU est le capitaine assermenté du port.

SAUVETAGE :
CROSS ETEL, Tél.: O2 .97.553.535.
De juin à septembre Poste de Secours – Plage des Nonnes,
Tél. : 05.46.02.72.92, situé à 1 mille au nord du Port.
Météo affichée à la Capitainerie.
Météo locale sur la zone Port de Meschers
Heure (UTC) Dir.Vent Vit.Vent (nds) Force (Bft) T°min T°max P (mb) Hum.Rel.
01/12/2022 - 03:00:00 au 01/12/2022 - 06:00:00 047° (NE) 13 4 5°C 5°C 1022 88 %
01/12/2022 - 06:00:00 au 01/12/2022 - 09:00:00 046° (NE) 13 4 5°C 6°C 1023 89 %
01/12/2022 - 09:00:00 au 01/12/2022 - 12:00:00 052° (NE) 12 4 8°C 8°C 1023 73 %
01/12/2022 - 12:00:00 au 01/12/2022 - 15:00:00 048° (NE) 13 4 9°C 9°C 1022 65 %
01/12/2022 - 15:00:00 au 01/12/2022 - 18:00:00 034° (NE) 10 3 7°C 7°C 1022 77 %
01/12/2022 - 18:00:00 au 01/12/2022 - 21:00:00 037° (NE) 10 3 7°C 7°C 1022 75 %
01/12/2022 - 21:00:00 au 02/12/2022 - 00:00:00 052° (NE) 10 3 8°C 8°C 1021 66 %
02/12/2022 - 00:00:00 au 02/12/2022 - 03:00:00 049° (NE) 11 4 7°C 7°C 1020 81 %
02/12/2022 - 03:00:00 au 02/12/2022 - 06:00:00 061° (ENE) 10 3 5°C 5°C 1020 89 %
02/12/2022 - 06:00:00 au 02/12/2022 - 09:00:00 052° (NE) 10 3 6°C 6°C 1019 83 %
02/12/2022 - 09:00:00 au 02/12/2022 - 12:00:00 061° (ENE) 12 4 9°C 9°C 1018 67 %
02/12/2022 - 12:00:00 au 02/12/2022 - 15:00:00 055° (NE) 12 4 9°C 9°C 1016 62 %
02/12/2022 - 15:00:00 au 02/12/2022 - 18:00:00 048° (NE) 11 4 8°C 8°C 1016 68 %
02/12/2022 - 18:00:00 au 02/12/2022 - 21:00:00 045° (NE) 10 3 6°C 6°C 1016 74 %
02/12/2022 - 21:00:00 au 03/12/2022 - 00:00:00 040° (NE) 11 4 5°C 5°C 1015 81 %
03/12/2022 - 00:00:00 au 03/12/2022 - 03:00:00 040° (NE) 12 4 6°C 6°C 1014 80 %
03/12/2022 - 03:00:00 au 03/12/2022 - 06:00:00 037° (NE) 13 4 5°C 5°C 1013 96 %
03/12/2022 - 06:00:00 au 03/12/2022 - 09:00:00 043° (NE) 12 4 5°C 5°C 1013 93 %
03/12/2022 - 09:00:00 au 03/12/2022 - 12:00:00 074° (ENE) 10 3 5°C 5°C 1012 93 %
03/12/2022 - 12:00:00 au 03/12/2022 - 15:00:00 060° (ENE) 9 3 6°C 6°C 1011 80 %
03/12/2022 - 15:00:00 au 03/12/2022 - 18:00:00 056° (NE) 8 3 7°C 7°C 1012 83 %
03/12/2022 - 18:00:00 au 03/12/2022 - 21:00:00 049° (NE) 7 3 6°C 6°C 1012 86 %
03/12/2022 - 21:00:00 au 04/12/2022 - 00:00:00 061° (ENE) 7 3 7°C 7°C 1011 92 %
04/12/2022 - 00:00:00 au 04/12/2022 - 03:00:00 064° (ENE) 5 2 7°C 7°C 1010 92 %
04/12/2022 - 03:00:00 au 04/12/2022 - 06:00:00 050° (NE) 5 2 6°C 6°C 1010 92 %
04/12/2022 - 06:00:00 au 04/12/2022 - 09:00:00 066° (ENE) 5 2 7°C 7°C 1011 88 %
04/12/2022 - 09:00:00 au 04/12/2022 - 12:00:00 172° (S) 1 1 9°C 9°C 1011 76 %
04/12/2022 - 12:00:00 au 04/12/2022 - 15:00:00 289° (WNW) 2 1 10°C 10°C 1011 71 %
04/12/2022 - 15:00:00 au 04/12/2022 - 18:00:00 056° (NE) 4 2 7°C 7°C 1012 82 %
04/12/2022 - 18:00:00 au 04/12/2022 - 21:00:00 109° (ESE) 5 2 7°C 7°C 1013 84 %
04/12/2022 - 21:00:00 au 05/12/2022 - 00:00:00 142° (SE) 6 2 7°C 7°C 1014 80 %
05/12/2022 - 00:00:00 au 05/12/2022 - 03:00:00 143° (SE) 7 3 6°C 6°C 1014 83 %
05/12/2022 - 03:00:00 au 05/12/2022 - 06:00:00 140° (SE) 8 3 5°C 5°C 1015 87 %
05/12/2022 - 06:00:00 au 05/12/2022 - 09:00:00 131° (SE) 10 3 6°C 6°C 1016 84 %
05/12/2022 - 09:00:00 au 05/12/2022 - 12:00:00 123° (ESE) 9 3 8°C 8°C 1015 81 %
05/12/2022 - 12:00:00 au 05/12/2022 - 15:00:00 134° (SE) 8 3 8°C 8°C 1015 77 %
05/12/2022 - 15:00:00 au 05/12/2022 - 18:00:00 147° (SSE) 7 3 8°C 8°C 1015 83 %
05/12/2022 - 18:00:00 au 05/12/2022 - 21:00:00 147° (SSE) 9 3 8°C 8°C 1015 85 %
05/12/2022 - 21:00:00 au 06/12/2022 - 00:00:00 129° (SE) 8 3 8°C 8°C 1014 94 %
06/12/2022 - 00:00:00 au 06/12/2022 - 03:00:00 131° (SE) 7 3 8°C 8°C 1013 95 %
openweathermap
Ces informations sont partiellement extraites de Wikipedia, et des sites pertinents pour cette zone. Compilation d'informations de Xavier Braive.
Xavier Braive, Expert Maritime Plaisance se déplace sur Port de Meschers, Meschers-sur-Gironde, 17132, Charente-Maritime

Welcome to Cross-Channel yachtmen !

we can deliver survey reports in english, in case of dammage or prior to buy / sell a boat in France (pre-purchase survey), and more specifically on the Atlantic coast.

Uw onafhankelijk jachtexpert

verkrijkbaar op de Atlantische kust, bij aankoop of reparatie van jachten (metaal, polyester of composiet). Rapporten in Nederlands

BRAIVE, Xavier
Xavier Braive
Expert Maritime
Nouvelle Aquitaine
France
07 64 82 25 44